Terminal Aerodrome Forecast
Issued by NWS Nashville, TN

Home | Current Version | Previous Version | Text Only | Print | Product List | Glossary On
Versions: 1 2 3 4 5 6 7 8 9 10 11 12 13 14 15 16 17 18 19 20
000
FTUS44 KOHX 030500
TAFCSV
TAF
KCSV 030532Z 0306/0406 00000KT P6SM -SHRA VCTS SCT035CB BKN060
     FM030800 00000KT 4SM BR VCSH SCT007 BKN100
      TEMPO 0309/0313 2SM BR BKN007
     FM031400 02003KT P6SM SCT035 SCT080=

USA.gov is the U.S. government's official web portal to all federal, state and local government web resources and services.